sensor_id;sensor_type;location;lat;lon;timestamp;P1;durP1;ratioP1;P2;durP2;ratioP2
23722;SDS011;12042;52.136;5.584;2023-04-09T05:52:13;50.17;;;30.08;;
23722;SDS011;12042;52.136;5.584;2023-04-09T05:54:40;53.38;;;30.42;;
23722;SDS011;12042;52.136;5.584;2023-04-09T05:57:06;48.03;;;29.70;;
23722;SDS011;12042;52.136;5.584;2023-04-09T05:59:31;46.67;;;28.20;;
23722;SDS011;12042;52.136;5.584;2023-04-09T06:01:57;47.60;;;29.25;;
23722;SDS011;12042;52.136;5.584;2023-04-09T06:04:23;44.78;;;28.08;;
23722;SDS011;12042;52.136;5.584;2023-04-09T06:06:49;46.67;;;27.08;;
23722;SDS011;12042;52.136;5.584;2023-04-09T06:09:15;43.45;;;27.90;;
23722;SDS011;12042;52.136;5.584;2023-04-09T06:11:41;46.25;;;28.63;;
23722;SDS011;12042;52.136;5.584;2023-04-09T06:14:06;45.00;;;27.73;;
23722;SDS011;12042;52.136;5.584;2023-04-09T06:16:32;42.80;;;27.15;;
23722;SDS011;12042;52.136;5.584;2023-04-09T06:18:57;42.97;;;27.27;;
23722;SDS011;12042;52.136;5.584;2023-04-09T06:21:23;41.60;;;25.33;;
23722;SDS011;12042;52.136;5.584;2023-04-09T06:23:48;40.55;;;25.38;;
23722;SDS011;12042;52.136;5.584;2023-04-09T06:26:14;42.35;;;25.65;;
23722;SDS011;12042;52.136;5.584;2023-04-09T06:28:39;39.45;;;25.77;;
23722;SDS011;12042;52.136;5.584;2023-04-09T06:31:05;41.83;;;25.45;;
23722;SDS011;12042;52.136;5.584;2023-04-09T06:33:31;36.83;;;24.63;;
23722;SDS011;12042;52.136;5.584;2023-04-09T06:35:56;37.42;;;23.95;;
23722;SDS011;12042;52.136;5.584;2023-04-09T06:38:22;38.45;;;24.27;;
23722;SDS011;12042;52.136;5.584;2023-04-09T06:40:48;36.83;;;21.92;;
23722;SDS011;12042;52.136;5.584;2023-04-09T06:43:13;34.65;;;21.30;;
23722;SDS011;12042;52.136;5.584;2023-04-09T06:45:41;33.15;;;21.55;;
23722;SDS011;12042;52.136;5.584;2023-04-09T06:48:07;32.42;;;21.75;;
23722;SDS011;12042;52.136;5.584;2023-04-09T06:50:32;35.35;;;22.13;;
23722;SDS011;12042;52.136;5.584;2023-04-09T06:52:58;35.63;;;21.92;;
23722;SDS011;12042;52.136;5.584;2023-04-09T06:55:23;33.22;;;21.10;;
23722;SDS011;12042;52.136;5.584;2023-04-09T06:57:50;37.03;;;21.50;;
23722;SDS011;12042;52.136;5.584;2023-04-09T07:00:16;31.35;;;21.05;;
23722;SDS011;12042;52.136;5.584;2023-04-09T07:02:41;35.28;;;21.88;;
23722;SDS011;12042;52.136;5.584;2023-04-09T07:05:07;35.75;;;23.23;;
23722;SDS011;12042;52.136;5.584;2023-04-09T07:07:33;35.28;;;22.80;;
23722;SDS011;12042;52.136;5.584;2023-04-09T07:09:59;33.80;;;21.95;;
23722;SDS011;12042;52.136;5.584;2023-04-09T07:12:29;33.78;;;22.42;;
23722;SDS011;12042;52.136;5.584;2023-04-09T07:14:56;40.72;;;23.63;;
23722;SDS011;12042;52.136;5.584;2023-04-09T07:17:23;36.40;;;23.05;;
23722;SDS011;12042;52.136;5.584;2023-04-09T07:19:48;39.08;;;23.60;;
23722;SDS011;12042;52.136;5.584;2023-04-09T07:22:15;36.53;;;22.95;;
23722;SDS011;12042;52.136;5.584;2023-04-09T07:24:47;36.67;;;23.80;;
23722;SDS011;12042;52.136;5.584;2023-04-09T07:27:20;37.47;;;22.10;;
23722;SDS011;12042;52.136;5.584;2023-04-09T07:29:47;35.17;;;22.48;;
23722;SDS011;12042;52.136;5.584;2023-04-09T07:32:12;38.58;;;23.77;;
23722;SDS011;12042;52.136;5.584;2023-04-09T07:34:39;38.83;;;23.83;;
23722;SDS011;12042;52.136;5.584;2023-04-09T07:37:06;33.72;;;22.05;;
23722;SDS011;12042;52.136;5.584;2023-04-09T07:39:32;38.05;;;23.38;;
23722;SDS011;12042;52.136;5.584;2023-04-09T07:42:00;36.75;;;22.38;;
23722;SDS011;12042;52.136;5.584;2023-04-09T07:44:26;33.60;;;21.83;;
23722;SDS011;12042;52.136;5.584;2023-04-09T07:46:53;35.78;;;21.67;;
23722;SDS011;12042;52.136;5.584;2023-04-09T07:49:18;39.15;;;24.02;;
23722;SDS011;12042;52.136;5.584;2023-04-09T07:51:45;35.78;;;23.13;;
23722;SDS011;12042;52.136;5.584;2023-04-09T07:54:10;36.45;;;22.65;;
23722;SDS011;12042;52.136;5.584;2023-04-09T07:56:37;36.85;;;22.95;;
23722;SDS011;12042;52.136;5.584;2023-04-09T07:59:03;38.65;;;23.42;;
23722;SDS011;12042;52.136;5.584;2023-04-09T08:01:28;35.17;;;23.08;;
23722;SDS011;12042;52.136;5.584;2023-04-09T08:03:54;36.47;;;23.52;;
23722;SDS011;12042;52.136;5.584;2023-04-09T08:06:19;36.38;;;23.00;;
23722;SDS011;12042;52.136;5.584;2023-04-09T08:08:45;37.08;;;23.50;;
23722;SDS011;12042;52.136;5.584;2023-04-09T08:11:10;42.70;;;24.23;;
23722;SDS011;12042;52.136;5.584;2023-04-09T08:13:36;34.83;;;23.55;;
23722;SDS011;12042;52.136;5.584;2023-04-09T08:16:02;34.53;;;23.40;;
23722;SDS011;12042;52.136;5.584;2023-04-09T08:18:27;35.88;;;22.65;;
23722;SDS011;12042;52.136;5.584;2023-04-09T08:20:54;40.33;;;23.60;;
23722;SDS011;12042;52.136;5.584;2023-04-09T08:23:20;35.63;;;23.35;;
23722;SDS011;12042;52.136;5.584;2023-04-09T08:25:45;36.95;;;23.38;;
23722;SDS011;12042;52.136;5.584;2023-04-09T08:28:11;37.40;;;23.80;;
23722;SDS011;12042;52.136;5.584;2023-04-09T08:30:37;33.03;;;22.27;;
23722;SDS011;12042;52.136;5.584;2023-04-09T08:33:02;32.53;;;22.15;;
23722;SDS011;12042;52.136;5.584;2023-04-09T08:35:31;34.78;;;21.77;;
23722;SDS011;12042;52.136;5.584;2023-04-09T08:37:57;35.33;;;22.55;;
23722;SDS011;12042;52.136;5.584;2023-04-09T08:40:23;33.53;;;22.33;;
23722;SDS011;12042;52.136;5.584;2023-04-09T08:42:54;30.52;;;21.33;;
23722;SDS011;12042;52.136;5.584;2023-04-09T08:45:20;30.13;;;21.23;;
23722;SDS011;12042;52.136;5.584;2023-04-09T08:47:47;31.20;;;21.95;;
23722;SDS011;12042;52.136;5.584;2023-04-09T08:50:14;30.15;;;21.23;;
23722;SDS011;12042;52.136;5.584;2023-04-09T08:52:40;33.53;;;21.83;;
23722;SDS011;12042;52.136;5.584;2023-04-09T08:55:06;32.85;;;22.27;;
23722;SDS011;12042;52.136;5.584;2023-04-09T08:57:36;27.80;;;19.90;;
23722;SDS011;12042;52.136;5.584;2023-04-09T09:00:02;26.15;;;19.08;;
23722;SDS011;12042;52.136;5.584;2023-04-09T09:02:28;28.20;;;19.42;;
23722;SDS011;12042;52.136;5.584;2023-04-09T09:04:55;24.73;;;18.40;;
23722;SDS011;12042;52.136;5.584;2023-04-09T09:07:24;22.98;;;17.55;;
23722;SDS011;12042;52.136;5.584;2023-04-09T09:10:00;25.10;;;18.15;;
23722;SDS011;12042;52.136;5.584;2023-04-09T09:12:38;25.08;;;18.80;;
23722;SDS011;12042;52.136;5.584;2023-04-09T09:17:53;25.00;;;18.83;;
23722;SDS011;12042;52.136;5.584;2023-04-09T09:20:20;22.88;;;17.45;;
23722;SDS011;12042;52.136;5.584;2023-04-09T09:22:51;25.00;;;18.00;;
23722;SDS011;12042;52.136;5.584;2023-04-09T09:25:18;24.42;;;17.55;;
23722;SDS011;12042;52.136;5.584;2023-04-09T09:27:48;22.42;;;17.42;;
23722;SDS011;12042;52.136;5.584;2023-04-09T09:30:24;27.45;;;18.15;;
23722;SDS011;12042;52.136;5.584;2023-04-09T09:32:51;24.30;;;18.08;;
23722;SDS011;12042;52.136;5.584;2023-04-09T09:35:18;24.17;;;17.58;;
23722;SDS011;12042;52.136;5.584;2023-04-09T09:37:44;22.98;;;17.42;;
23722;SDS011;12042;52.136;5.584;2023-04-09T09:40:09;25.48;;;18.40;;
23722;SDS011;12042;52.136;5.584;2023-04-09T09:42:36;24.75;;;18.13;;
23722;SDS011;12042;52.136;5.584;2023-04-09T09:45:16;25.45;;;17.80;;
23722;SDS011;12042;52.136;5.584;2023-04-09T09:47:43;25.08;;;17.45;;
23722;SDS011;12042;52.136;5.584;2023-04-09T09:50:09;20.80;;;16.65;;
23722;SDS011;12042;52.136;5.584;2023-04-09T09:52:35;24.92;;;17.33;;
23722;SDS011;12042;52.136;5.584;2023-04-09T09:55:03;22.23;;;17.13;;
23722;SDS011;12042;52.136;5.584;2023-04-09T09:57:30;22.77;;;16.08;;
23722;SDS011;12042;52.136;5.584;2023-04-09T10:00:02;20.92;;;15.88;;
23722;SDS011;12042;52.136;5.584;2023-04-09T10:02:30;21.50;;;16.83;;
23722;SDS011;12042;52.136;5.584;2023-04-09T10:05:15;19.52;;;15.18;;
23722;SDS011;12042;52.136;5.584;2023-04-09T10:07:40;19.33;;;14.98;;
23722;SDS011;12042;52.136;5.584;2023-04-09T10:10:07;23.58;;;16.40;;
23722;SDS011;12042;52.136;5.584;2023-04-09T10:12:33;21.58;;;16.55;;
23722;SDS011;12042;52.136;5.584;2023-04-09T10:14:59;22.50;;;16.27;;
23722;SDS011;12042;52.136;5.584;2023-04-09T10:17:30;21.27;;;16.95;;
23722;SDS011;12042;52.136;5.584;2023-04-09T10:20:13;20.95;;;15.73;;
23722;SDS011;12042;52.136;5.584;2023-04-09T10:22:45;22.58;;;15.43;;
23722;SDS011;12042;52.136;5.584;2023-04-09T10:25:13;20.80;;;14.65;;
23722;SDS011;12042;52.136;5.584;2023-04-09T10:27:41;14.88;;;12.43;;
23722;SDS011;12042;52.136;5.584;2023-04-09T10:30:10;15.73;;;12.75;;
23722;SDS011;12042;52.136;5.584;2023-04-09T10:33:14;17.65;;;13.63;;
23722;SDS011;12042;52.136;5.584;2023-04-09T10:35:42;17.58;;;13.77;;
23722;SDS011;12042;52.136;5.584;2023-04-09T10:38:12;16.48;;;13.02;;
23722;SDS011;12042;52.136;5.584;2023-04-09T10:40:39;16.98;;;13.00;;
23722;SDS011;12042;52.136;5.584;2023-04-09T10:43:06;14.63;;;12.35;;
23722;SDS011;12042;52.136;5.584;2023-04-09T10:45:40;16.50;;;13.63;;
23722;SDS011;12042;52.136;5.584;2023-04-09T10:48:12;16.70;;;13.18;;
23722;SDS011;12042;52.136;5.584;2023-04-09T10:50:38;17.35;;;13.77;;
23722;SDS011;12042;52.136;5.584;2023-04-09T10:53:09;18.95;;;13.35;;
23722;SDS011;12042;52.136;5.584;2023-04-09T10:55:48;13.90;;;12.10;;
23722;SDS011;12042;52.136;5.584;2023-04-09T10:58:15;14.55;;;12.05;;
23722;SDS011;12042;52.136;5.584;2023-04-09T11:00:41;15.95;;;11.63;;
23722;SDS011;12042;52.136;5.584;2023-04-09T11:06:07;13.65;;;11.05;;
23722;SDS011;12042;52.136;5.584;2023-04-09T11:08:36;14.27;;;10.95;;
23722;SDS011;12042;52.136;5.584;2023-04-09T11:11:02;12.25;;;10.68;;
23722;SDS011;12042;52.136;5.584;2023-04-09T11:13:29;13.27;;;11.27;;
23722;SDS011;12042;52.136;5.584;2023-04-09T11:15:55;15.00;;;12.35;;
23722;SDS011;12042;52.136;5.584;2023-04-09T11:18:25;14.23;;;12.00;;
23722;SDS011;12042;52.136;5.584;2023-04-09T11:20:53;12.95;;;10.63;;
23722;SDS011;12042;52.136;5.584;2023-04-09T11:23:23;14.77;;;11.38;;
23722;SDS011;12042;52.136;5.584;2023-04-09T11:25:50;12.73;;;11.05;;
23722;SDS011;12042;52.136;5.584;2023-04-09T11:28:18;14.02;;;11.57;;
23722;SDS011;12042;52.136;5.584;2023-04-09T11:30:44;12.60;;;10.63;;
23722;SDS011;12042;52.136;5.584;2023-04-09T11:33:13;17.52;;;13.32;;
23722;SDS011;12042;52.136;5.584;2023-04-09T11:35:39;15.00;;;11.85;;
23722;SDS011;12042;52.136;5.584;2023-04-09T11:38:05;14.93;;;12.25;;
23722;SDS011;12042;52.136;5.584;2023-04-09T11:40:45;13.25;;;11.18;;
23722;SDS011;12042;52.136;5.584;2023-04-09T11:43:17;17.13;;;12.07;;
23722;SDS011;12042;52.136;5.584;2023-04-09T11:45:46;14.63;;;11.60;;
23722;SDS011;12042;52.136;5.584;2023-04-09T11:48:13;14.52;;;12.15;;
23722;SDS011;12042;52.136;5.584;2023-04-09T11:50:39;16.25;;;12.60;;
23722;SDS011;12042;52.136;5.584;2023-04-09T11:53:18;12.85;;;10.45;;
23722;SDS011;12042;52.136;5.584;2023-04-09T11:55:46;14.32;;;11.48;;
23722;SDS011;12042;52.136;5.584;2023-04-09T11:58:15;12.20;;;10.88;;
23722;SDS011;12042;52.136;5.584;2023-04-09T12:00:47;13.25;;;11.27;;
23722;SDS011;12042;52.136;5.584;2023-04-09T12:03:54;12.25;;;10.88;;
23722;SDS011;12042;52.136;5.584;2023-04-09T12:06:26;12.68;;;10.50;;
23722;SDS011;12042;52.136;5.584;2023-04-09T12:08:57;14.18;;;11.65;;
23722;SDS011;12042;52.136;5.584;2023-04-09T12:11:27;14.35;;;11.32;;
23722;SDS011;12042;52.136;5.584;2023-04-09T12:14:03;14.98;;;12.40;;
23722;SDS011;12042;52.136;5.584;2023-04-09T12:16:30;12.98;;;11.38;;
23722;SDS011;12042;52.136;5.584;2023-04-09T12:19:06;13.35;;;11.48;;
23722;SDS011;12042;52.136;5.584;2023-04-09T12:21:53;13.25;;;10.65;;
23722;SDS011;12042;52.136;5.584;2023-04-09T12:24:21;11.45;;;9.65;;
23722;SDS011;12042;52.136;5.584;2023-04-09T12:26:50;10.75;;;9.65;;
23722;SDS011;12042;52.136;5.584;2023-04-09T12:29:17;10.82;;;9.18;;
23722;SDS011;12042;52.136;5.584;2023-04-09T12:31:43;9.85;;;8.85;;
23722;SDS011;12042;52.136;5.584;2023-04-09T12:34:09;9.90;;;8.82;;
23722;SDS011;12042;52.136;5.584;2023-04-09T12:36:43;9.15;;;8.25;;
23722;SDS011;12042;52.136;5.584;2023-04-09T12:39:12;9.40;;;7.97;;
23722;SDS011;12042;52.136;5.584;2023-04-09T12:41:37;10.38;;;8.63;;
23722;SDS011;12042;52.136;5.584;2023-04-09T12:44:03;10.70;;;9.60;;
23722;SDS011;12042;52.136;5.584;2023-04-09T12:46:29;10.40;;;9.23;;
23722;SDS011;12042;52.136;5.584;2023-04-09T12:48:58;10.07;;;7.95;;
23722;SDS011;12042;52.136;5.584;2023-04-09T12:51:24;9.00;;;8.10;;
23722;SDS011;12042;52.136;5.584;2023-04-09T12:53:50;8.80;;;7.90;;
23722;SDS011;12042;52.136;5.584;2023-04-09T12:56:15;10.07;;;8.57;;
23722;SDS011;12042;52.136;5.584;2023-04-09T12:58:41;8.85;;;7.95;;
23722;SDS011;12042;52.136;5.584;2023-04-09T13:01:06;8.65;;;7.55;;
23722;SDS011;12042;52.136;5.584;2023-04-09T13:03:32;7.13;;;6.53;;
23722;SDS011;12042;52.136;5.584;2023-04-09T13:05:58;7.47;;;6.78;;
23722;SDS011;12042;52.136;5.584;2023-04-09T13:08:23;7.45;;;6.80;;
23722;SDS011;12042;52.136;5.584;2023-04-09T13:10:49;7.95;;;7.25;;
23722;SDS011;12042;52.136;5.584;2023-04-09T13:13:15;8.00;;;7.07;;
23722;SDS011;12042;52.136;5.584;2023-04-09T13:15:41;7.90;;;7.05;;
23722;SDS011;12042;52.136;5.584;2023-04-09T13:18:11;7.45;;;6.75;;
23722;SDS011;12042;52.136;5.584;2023-04-09T13:20:36;7.10;;;6.50;;
23722;SDS011;12042;52.136;5.584;2023-04-09T13:23:02;7.32;;;6.72;;
23722;SDS011;12042;52.136;5.584;2023-04-09T13:25:28;7.00;;;6.30;;
23722;SDS011;12042;52.136;5.584;2023-04-09T13:27:53;6.72;;;6.13;;
23722;SDS011;12042;52.136;5.584;2023-04-09T13:30:22;6.88;;;6.35;;
23722;SDS011;12042;52.136;5.584;2023-04-09T13:32:48;7.25;;;6.55;;
23722;SDS011;12042;52.136;5.584;2023-04-09T13:35:13;7.60;;;6.85;;
23722;SDS011;12042;52.136;5.584;2023-04-09T13:37:39;7.72;;;7.03;;
23722;SDS011;12042;52.136;5.584;2023-04-09T13:40:05;6.75;;;6.25;;
23722;SDS011;12042;52.136;5.584;2023-04-09T13:42:32;6.88;;;6.30;;
23722;SDS011;12042;52.136;5.584;2023-04-09T13:44:58;7.22;;;6.50;;
23722;SDS011;12042;52.136;5.584;2023-04-09T13:47:24;6.22;;;5.72;;
23722;SDS011;12042;52.136;5.584;2023-04-09T13:49:49;7.70;;;7.05;;
23722;SDS011;12042;52.136;5.584;2023-04-09T13:52:18;7.50;;;6.80;;
23722;SDS011;12042;52.136;5.584;2023-04-09T13:54:43;6.78;;;6.28;;
23722;SDS011;12042;52.136;5.584;2023-04-09T13:57:42;8.68;;;7.75;;
23722;SDS011;12042;52.136;5.584;2023-04-09T14:00:15;8.93;;;7.78;;
23722;SDS011;12042;52.136;5.584;2023-04-09T14:02:41;9.82;;;7.90;;
23722;SDS011;12042;52.136;5.584;2023-04-09T14:05:06;9.48;;;8.55;;
23722;SDS011;12042;52.136;5.584;2023-04-09T14:07:36;8.98;;;8.10;;
23722;SDS011;12042;52.136;5.584;2023-04-09T14:10:02;9.98;;;8.98;;
23722;SDS011;12042;52.136;5.584;2023-04-09T14:12:48;10.75;;;9.65;;
23722;SDS011;12042;52.136;5.584;2023-04-09T14:15:14;10.48;;;9.40;;
23722;SDS011;12042;52.136;5.584;2023-04-09T14:17:41;13.27;;;11.10;;
23722;SDS011;12042;52.136;5.584;2023-04-09T14:20:07;14.32;;;11.40;;
23722;SDS011;12042;52.136;5.584;2023-04-09T14:22:46;14.20;;;12.35;;
23722;SDS011;12042;52.136;5.584;2023-04-09T14:25:17;13.07;;;11.68;;
23722;SDS011;12042;52.136;5.584;2023-04-09T14:27:42;13.68;;;11.70;;
23722;SDS011;12042;52.136;5.584;2023-04-09T14:30:08;12.38;;;10.93;;
23722;SDS011;12042;52.136;5.584;2023-04-09T14:32:34;11.82;;;10.50;;
23722;SDS011;12042;52.136;5.584;2023-04-09T14:35:20;12.80;;;11.40;;
23722;SDS011;12042;52.136;5.584;2023-04-09T14:37:46;12.10;;;10.80;;
23722;SDS011;12042;52.136;5.584;2023-04-09T14:40:11;11.40;;;10.10;;
23722;SDS011;12042;52.136;5.584;2023-04-09T14:42:37;12.85;;;11.52;;
23722;SDS011;12042;52.136;5.584;2023-04-09T14:45:03;13.10;;;11.73;;
23722;SDS011;12042;52.136;5.584;2023-04-09T14:47:29;12.63;;;11.13;;
23722;SDS011;12042;52.136;5.584;2023-04-09T14:49:55;15.27;;;11.50;;
23722;SDS011;12042;52.136;5.584;2023-04-09T14:52:20;13.25;;;11.80;;
23722;SDS011;12042;52.136;5.584;2023-04-09T14:54:46;13.13;;;11.63;;
23722;SDS011;12042;52.136;5.584;2023-04-09T14:57:11;12.15;;;10.80;;
23722;SDS011;12042;52.136;5.584;2023-04-09T14:59:37;12.73;;;11.40;;
23722;SDS011;12042;52.136;5.584;2023-04-09T15:02:02;13.95;;;11.40;;
23722;SDS011;12042;52.136;5.584;2023-04-09T15:04:28;13.48;;;11.73;;
23722;SDS011;12042;52.136;5.584;2023-04-09T15:06:53;13.18;;;11.05;;
23722;SDS011;12042;52.136;5.584;2023-04-09T15:09:19;15.02;;;12.30;;
23722;SDS011;12042;52.136;5.584;2023-04-09T15:11:45;14.88;;;12.07;;
23722;SDS011;12042;52.136;5.584;2023-04-09T15:14:10;15.38;;;11.13;;
23722;SDS011;12042;52.136;5.584;2023-04-09T15:16:36;11.85;;;10.55;;
23722;SDS011;12042;52.136;5.584;2023-04-09T15:19:02;12.27;;;10.82;;
23722;SDS011;12042;52.136;5.584;2023-04-09T15:21:28;13.23;;;10.68;;
23722;SDS011;12042;52.136;5.584;2023-04-09T15:23:54;10.95;;;9.85;;
23722;SDS011;12042;52.136;5.584;2023-04-09T15:26:22;11.40;;;9.88;;
23722;SDS011;12042;52.136;5.584;2023-04-09T15:28:47;15.15;;;10.93;;
23722;SDS011;12042;52.136;5.584;2023-04-09T15:31:13;10.65;;;9.55;;
23722;SDS011;12042;52.136;5.584;2023-04-09T15:33:40;11.93;;;9.90;;
23722;SDS011;12042;52.136;5.584;2023-04-09T15:36:07;10.50;;;9.40;;
23722;SDS011;12042;52.136;5.584;2023-04-09T15:38:33;10.95;;;9.85;;
23722;SDS011;12042;52.136;5.584;2023-04-09T15:40:58;10.48;;;9.38;;
23722;SDS011;12042;52.136;5.584;2023-04-09T15:43:24;10.25;;;9.15;;
23722;SDS011;12042;52.136;5.584;2023-04-09T15:45:51;10.68;;;9.60;;
23722;SDS011;12042;52.136;5.584;2023-04-09T15:48:17;10.15;;;9.15;;
23722;SDS011;12042;52.136;5.584;2023-04-09T15:50:43;10.48;;;9.40;;
23722;SDS011;12042;52.136;5.584;2023-04-09T15:53:09;10.77;;;9.68;;
23722;SDS011;12042;52.136;5.584;2023-04-09T15:55:35;11.57;;;10.38;;
23722;SDS011;12042;52.136;5.584;2023-04-09T15:58:00;10.77;;;9.77;;
23722;SDS011;12042;52.136;5.584;2023-04-09T16:00:26;10.63;;;9.63;;
23722;SDS011;12042;52.136;5.584;2023-04-09T16:02:52;11.07;;;10.05;;
23722;SDS011;12042;52.136;5.584;2023-04-09T16:05:18;10.23;;;9.27;;
23722;SDS011;12042;52.136;5.584;2023-04-09T16:07:43;10.95;;;9.85;;
23722;SDS011;12042;52.136;5.584;2023-04-09T16:10:09;11.73;;;10.60;;
23722;SDS011;12042;52.136;5.584;2023-04-09T16:12:35;9.95;;;8.95;;
23722;SDS011;12042;52.136;5.584;2023-04-09T16:15:00;9.52;;;8.63;;
23722;SDS011;12042;52.136;5.584;2023-04-09T16:17:26;10.75;;;9.40;;
23722;SDS011;12042;52.136;5.584;2023-04-09T16:19:52;11.35;;;10.02;;
23722;SDS011;12042;52.136;5.584;2023-04-09T16:22:17;9.98;;;9.00;;
23722;SDS011;12042;52.136;5.584;2023-04-09T16:24:43;10.05;;;9.05;;
23722;SDS011;12042;52.136;5.584;2023-04-09T16:27:09;11.65;;;10.45;;
23722;SDS011;12042;52.136;5.584;2023-04-09T16:29:35;11.60;;;10.50;;
23722;SDS011;12042;52.136;5.584;2023-04-09T16:32:00;10.68;;;9.68;;
23722;SDS011;12042;52.136;5.584;2023-04-09T16:34:27;10.85;;;9.55;;
23722;SDS011;12042;52.136;5.584;2023-04-09T16:36:55;11.15;;;10.05;;
23722;SDS011;12042;52.136;5.584;2023-04-09T16:39:21;10.50;;;9.50;;
23722;SDS011;12042;52.136;5.584;2023-04-09T16:41:46;10.25;;;9.25;;
23722;SDS011;12042;52.136;5.584;2023-04-09T16:44:13;12.02;;;10.00;;
23722;SDS011;12042;52.136;5.584;2023-04-09T16:46:39;10.57;;;9.60;;
23722;SDS011;12042;52.136;5.584;2023-04-09T16:49:04;10.80;;;9.68;;
23722;SDS011;12042;52.136;5.584;2023-04-09T16:51:30;11.18;;;9.95;;
23722;SDS011;12042;52.136;5.584;2023-04-09T16:53:55;10.80;;;9.75;;
23722;SDS011;12042;52.136;5.584;2023-04-09T16:56:21;11.68;;;10.57;;
23722;SDS011;12042;52.136;5.584;2023-04-09T16:58:47;12.02;;;10.90;;
23722;SDS011;12042;52.136;5.584;2023-04-09T17:01:13;10.95;;;9.82;;
23722;SDS011;12042;52.136;5.584;2023-04-09T17:03:38;10.30;;;9.40;;
23722;SDS011;12042;52.136;5.584;2023-04-09T17:06:05;10.85;;;9.85;;
23722;SDS011;12042;52.136;5.584;2023-04-09T17:08:31;11.02;;;9.95;;
23722;SDS011;12042;52.136;5.584;2023-04-09T17:10:56;11.48;;;9.95;;
23722;SDS011;12042;52.136;5.584;2023-04-09T17:13:29;10.40;;;9.40;;
23722;SDS011;12042;52.136;5.584;2023-04-09T17:15:56;10.73;;;9.07;;
23722;SDS011;12042;52.136;5.584;2023-04-09T17:18:22;9.80;;;8.90;;
23722;SDS011;12042;52.136;5.584;2023-04-09T17:20:48;10.65;;;9.63;;
23722;SDS011;12042;52.136;5.584;2023-04-09T17:23:14;10.32;;;9.32;;
23722;SDS011;12042;52.136;5.584;2023-04-09T17:25:40;11.10;;;10.05;;
23722;SDS011;12042;52.136;5.584;2023-04-09T17:28:05;10.82;;;9.82;;
23722;SDS011;12042;52.136;5.584;2023-04-09T17:30:31;11.65;;;10.50;;
23722;SDS011;12042;52.136;5.584;2023-04-09T17:32:57;10.80;;;9.80;;
23722;SDS011;12042;52.136;5.584;2023-04-09T17:35:23;11.52;;;10.35;;
23722;SDS011;12042;52.136;5.584;2023-04-09T17:37:49;10.70;;;9.60;;
23722;SDS011;12042;52.136;5.584;2023-04-09T17:40:15;9.23;;;8.43;;
23722;SDS011;12042;52.136;5.584;2023-04-09T17:42:42;10.43;;;9.43;;
23722;SDS011;12042;52.136;5.584;2023-04-09T17:45:08;9.80;;;8.90;;
23722;SDS011;12042;52.136;5.584;2023-04-09T17:47:34;10.60;;;9.52;;
23722;SDS011;12042;52.136;5.584;2023-04-09T17:50:00;11.48;;;9.30;;
23722;SDS011;12042;52.136;5.584;2023-04-09T17:52:26;10.18;;;9.00;;
23722;SDS011;12042;52.136;5.584;2023-04-09T17:54:53;9.60;;;8.80;;
23722;SDS011;12042;52.136;5.584;2023-04-09T17:57:19;9.07;;;8.27;;
23722;SDS011;12042;52.136;5.584;2023-04-09T17:59:44;10.43;;;9.43;;
23722;SDS011;12042;52.136;5.584;2023-04-09T18:02:10;9.35;;;8.45;;
23722;SDS011;12042;52.136;5.584;2023-04-09T18:04:36;9.70;;;8.82;;
23722;SDS011;12042;52.136;5.584;2023-04-09T18:07:02;9.90;;;8.90;;
23722;SDS011;12042;52.136;5.584;2023-04-09T18:09:28;9.52;;;8.70;;
23722;SDS011;12042;52.136;5.584;2023-04-09T18:11:53;8.90;;;8.07;;
23722;SDS011;12042;52.136;5.584;2023-04-09T18:14:20;10.50;;;8.90;;
23722;SDS011;12042;52.136;5.584;2023-04-09T18:16:46;9.95;;;9.10;;
23722;SDS011;12042;52.136;5.584;2023-04-09T18:19:12;10.45;;;9.55;;
23722;SDS011;12042;52.136;5.584;2023-04-09T18:21:38;11.45;;;10.35;;
23722;SDS011;12042;52.136;5.584;2023-04-09T18:24:03;11.27;;;10.18;;
23722;SDS011;12042;52.136;5.584;2023-04-09T18:26:29;12.35;;;10.68;;
23722;SDS011;12042;52.136;5.584;2023-04-09T18:28:57;11.75;;;10.57;;
23722;SDS011;12042;52.136;5.584;2023-04-09T18:31:22;11.48;;;10.07;;
23722;SDS011;12042;52.136;5.584;2023-04-09T18:33:48;13.45;;;12.05;;
23722;SDS011;12042;52.136;5.584;2023-04-09T18:36:14;11.48;;;9.95;;
23722;SDS011;12042;52.136;5.584;2023-04-09T18:38:39;11.13;;;10.13;;
23722;SDS011;12042;52.136;5.584;2023-04-09T18:41:05;10.80;;;9.85;;
23722;SDS011;12042;52.136;5.584;2023-04-09T18:43:32;11.00;;;9.75;;
23722;SDS011;12042;52.136;5.584;2023-04-09T18:45:58;11.48;;;10.20;;
23722;SDS011;12042;52.136;5.584;2023-04-09T18:48:24;13.00;;;10.38;;
23722;SDS011;12042;52.136;5.584;2023-04-09T18:50:49;10.80;;;9.80;;
23722;SDS011;12042;52.136;5.584;2023-04-09T18:53:15;12.80;;;11.20;;
23722;SDS011;12042;52.136;5.584;2023-04-09T18:55:41;12.02;;;10.80;;
23722;SDS011;12042;52.136;5.584;2023-04-09T18:58:06;13.35;;;12.02;;
23722;SDS011;12042;52.136;5.584;2023-04-09T19:00:39;12.57;;;11.30;;
23722;SDS011;12042;52.136;5.584;2023-04-09T19:03:05;12.40;;;10.63;;
23722;SDS011;12042;52.136;5.584;2023-04-09T19:05:31;12.60;;;11.13;;
23722;SDS011;12042;52.136;5.584;2023-04-09T19:07:57;12.57;;;11.30;;
23722;SDS011;12042;52.136;5.584;2023-04-09T19:10:24;11.93;;;10.57;;
23722;SDS011;12042;52.136;5.584;2023-04-09T19:12:51;11.80;;;10.60;;
23722;SDS011;12042;52.136;5.584;2023-04-09T19:15:20;11.75;;;10.55;;
23722;SDS011;12042;52.136;5.584;2023-04-09T19:17:46;11.88;;;10.68;;
23722;SDS011;12042;52.136;5.584;2023-04-09T19:20:13;11.07;;;9.98;;
23722;SDS011;12042;52.136;5.584;2023-04-09T19:22:39;12.07;;;10.68;;
23722;SDS011;12042;52.136;5.584;2023-04-09T19:25:17;11.27;;;10.18;;
23722;SDS011;12042;52.136;5.584;2023-04-09T19:27:43;11.20;;;10.10;;
23722;SDS011;12042;52.136;5.584;2023-04-09T19:30:09;12.38;;;10.32;;
23722;SDS011;12042;52.136;5.584;2023-04-09T19:32:35;11.90;;;10.68;;
23722;SDS011;12042;52.136;5.584;2023-04-09T19:35:01;12.30;;;11.00;;
23722;SDS011;12042;52.136;5.584;2023-04-09T19:37:28;12.13;;;10.93;;
23722;SDS011;12042;52.136;5.584;2023-04-09T19:39:54;12.10;;;10.80;;
23722;SDS011;12042;52.136;5.584;2023-04-09T19:42:22;11.43;;;10.32;;
23722;SDS011;12042;52.136;5.584;2023-04-09T19:44:48;11.85;;;10.65;;
23722;SDS011;12042;52.136;5.584;2023-04-09T19:47:14;11.27;;;9.63;;
23722;SDS011;12042;52.136;5.584;2023-04-09T19:49:43;11.80;;;10.32;;
23722;SDS011;12042;52.136;5.584;2023-04-09T19:52:08;10.40;;;9.38;;
23722;SDS011;12042;52.136;5.584;2023-04-09T19:54:34;10.57;;;9.50;;
23722;SDS011;12042;52.136;5.584;2023-04-09T19:57:01;10.38;;;9.38;;
23722;SDS011;12042;52.136;5.584;2023-04-09T19:59:28;10.52;;;9.52;;
23722;SDS011;12042;52.136;5.584;2023-04-09T20:01:53;11.68;;;10.13;;
23722;SDS011;12042;52.136;5.584;2023-04-09T20:04:19;10.30;;;9.27;;
23722;SDS011;12042;52.136;5.584;2023-04-09T20:06:49;9.80;;;8.90;;
23722;SDS011;12042;52.136;5.584;2023-04-09T20:09:18;10.35;;;9.35;;
23722;SDS011;12042;52.136;5.584;2023-04-09T20:11:49;11.15;;;9.13;;
23722;SDS011;12042;52.136;5.584;2023-04-09T20:14:14;11.77;;;9.68;;
23722;SDS011;12042;52.136;5.584;2023-04-09T20:16:41;11.10;;;9.82;;
23722;SDS011;12042;52.136;5.584;2023-04-09T20:19:06;9.80;;;8.90;;
23722;SDS011;12042;52.136;5.584;2023-04-09T20:21:32;10.90;;;9.80;;
23722;SDS011;12042;52.136;5.584;2023-04-09T20:23:58;10.85;;;9.75;;
23722;SDS011;12042;52.136;5.584;2023-04-09T20:26:23;11.85;;;10.02;;